createdAt,value
2022-08-19T00:01:53.151Z,-61
2022-08-19T00:04:22.471Z,-61
2022-08-19T00:06:49.143Z,-61
2022-08-19T00:09:17.932Z,-61
2022-08-19T00:11:45.012Z,-61
2022-08-19T00:14:14.380Z,-61
2022-08-19T00:16:43.350Z,-61
2022-08-19T00:19:10.269Z,-61
2022-08-19T00:21:40.502Z,-61
2022-08-19T00:24:10.011Z,-61
2022-08-19T00:26:38.286Z,-61
2022-08-19T00:29:06.278Z,-61
2022-08-19T00:31:33.068Z,-61
2022-08-19T00:34:00.001Z,-61
2022-08-19T00:36:26.447Z,-61
2022-08-19T00:38:53.306Z,-61
2022-08-19T00:41:22.344Z,-61
2022-08-19T00:44:05.929Z,-60
2022-08-19T00:46:34.246Z,-61
2022-08-19T00:49:03.360Z,-61
2022-08-19T00:51:33.300Z,-60
2022-08-19T00:54:01.968Z,-61
2022-08-19T00:56:28.992Z,-61
2022-08-19T00:58:57.345Z,-61
2022-08-19T01:01:23.799Z,-61
2022-08-19T01:03:58.139Z,-61
2022-08-19T01:06:26.258Z,-61
2022-08-19T01:08:52.824Z,-61
2022-08-19T01:11:19.282Z,-60
2022-08-19T01:13:49.913Z,-61
2022-08-19T01:16:18.593Z,-61
2022-08-19T01:18:45.029Z,-61
2022-08-19T01:21:23.405Z,-61
2022-08-19T01:23:49.963Z,-61
2022-08-19T01:26:19.979Z,-61
2022-08-19T01:28:48.444Z,-61
2022-08-19T01:31:26.957Z,-61
2022-08-19T01:33:55.904Z,-60
2022-08-19T01:36:29.973Z,-61
2022-08-19T01:38:57.290Z,-61
2022-08-19T01:41:24.327Z,-61
2022-08-19T01:44:13.982Z,-61
2022-08-19T01:46:38.982Z,-61
2022-08-19T01:49:07.150Z,-61
2022-08-19T01:51:39.712Z,-61
2022-08-19T01:54:07.792Z,-61
2022-08-19T01:56:34.226Z,-60
2022-08-19T01:59:04.006Z,-60
2022-08-19T02:01:32.796Z,-61
2022-08-19T02:04:01.535Z,-60
2022-08-19T02:06:28.830Z,-60
2022-08-19T02:08:57.374Z,-60
2022-08-19T02:11:34.362Z,-60
2022-08-19T02:14:06.665Z,-60
2022-08-19T02:16:33.578Z,-61
2022-08-19T02:19:02.822Z,-61
2022-08-19T02:21:30.734Z,-60
2022-08-19T02:23:57.794Z,-60
2022-08-19T02:26:24.443Z,-61
2022-08-19T02:28:50.845Z,-61
2022-08-19T02:31:20.634Z,-61
2022-08-19T02:33:48.358Z,-60
2022-08-19T02:36:16.398Z,-61
2022-08-19T02:38:54.337Z,-60
2022-08-19T02:41:26.610Z,-60
2022-08-19T02:44:22.801Z,-61
2022-08-19T02:46:40.851Z,-61
2022-08-19T02:49:08.562Z,-61
2022-08-19T02:51:41.841Z,-61
2022-08-19T02:54:10.813Z,-60
2022-08-19T02:56:39.140Z,-60
2022-08-19T02:59:09.186Z,-61
2022-08-19T03:01:37.770Z,-60
2022-08-19T03:04:06.668Z,-60
2022-08-19T03:06:36.925Z,-61
2022-08-19T03:09:03.477Z,-61
2022-08-19T03:11:32.036Z,-61
2022-08-19T03:13:59.748Z,-61
2022-08-19T03:16:33.462Z,-60
2022-08-19T03:19:01.868Z,-61
2022-08-19T03:21:33.553Z,-61
2022-08-19T03:24:04.678Z,-60
2022-08-19T03:26:31.714Z,-61
2022-08-19T03:28:59.109Z,-61
2022-08-19T03:31:43.455Z,-61
2022-08-19T03:34:16.141Z,-61
2022-08-19T03:36:42.986Z,-61
2022-08-19T03:39:10.749Z,-60
2022-08-19T03:41:45.651Z,-61
2022-08-19T03:44:19.496Z,-61
2022-08-19T03:46:52.853Z,-60
2022-08-19T03:49:20.886Z,-61
2022-08-19T03:51:49.149Z,-61
2022-08-19T03:54:18.303Z,-60
2022-08-19T03:56:46.965Z,-61
2022-08-19T03:59:18.341Z,-60
2022-08-19T04:01:44.990Z,-60
2022-08-19T04:04:11.416Z,-60
2022-08-19T04:06:39.607Z,-61
2022-08-19T04:09:09.740Z,-61
2022-08-19T04:11:43.480Z,-61
2022-08-19T04:14:13.412Z,-61
2022-08-19T04:16:39.946Z,-62
2022-08-19T04:19:07.445Z,-64
2022-08-19T04:21:34.413Z,-62
2022-08-19T04:24:01.421Z,-62
2022-08-19T04:26:36.042Z,-61
2022-08-19T04:29:09.170Z,-61
2022-08-19T04:31:38.350Z,-61
2022-08-19T04:34:07.213Z,-63
2022-08-19T04:36:36.138Z,-63
2022-08-19T04:39:16.568Z,-61
2022-08-19T04:42:02.249Z,-61
2022-08-19T04:44:31.445Z,-61
2022-08-19T04:46:59.741Z,-61
2022-08-19T04:49:28.048Z,-61
2022-08-19T04:51:55.348Z,-61
2022-08-19T04:54:37.916Z,-63
2022-08-19T04:57:08.440Z,-61
2022-08-19T04:59:36.085Z,-61
2022-08-19T05:02:03.116Z,-61
2022-08-19T05:04:32.615Z,-59
2022-08-19T05:07:01.012Z,-58
2022-08-19T05:09:28.695Z,-58
2022-08-19T05:12:16.391Z,-58
2022-08-19T05:14:42.764Z,-58
2022-08-19T05:17:26.654Z,-58
2022-08-19T05:20:12.424Z,-60
2022-08-19T05:22:38.855Z,-58
2022-08-19T05:25:13.172Z,-58
2022-08-19T05:27:40.785Z,-58
2022-08-19T05:30:07.852Z,-60
2022-08-19T05:32:34.495Z,-60
2022-08-19T05:35:00.913Z,-60
2022-08-19T05:37:28.446Z,-61
2022-08-19T05:39:55.594Z,-60
2022-08-19T05:42:23.717Z,-60
2022-08-19T05:44:51.402Z,-60
2022-08-19T05:47:20.499Z,-60
2022-08-19T05:49:47.193Z,-58
2022-08-19T05:52:19.516Z,-58
2022-08-19T05:54:52.021Z,-60
2022-08-19T05:57:19.933Z,-58
2022-08-19T05:59:53.192Z,-58
2022-08-19T06:02:25.789Z,-59
2022-08-19T06:04:52.227Z,-60
2022-08-19T06:07:18.659Z,-62
2022-08-19T06:10:00.114Z,-61
2022-08-19T06:12:37.196Z,-60
2022-08-19T06:15:10.174Z,-60
2022-08-19T06:17:37.125Z,-61
2022-08-19T06:20:09.737Z,-61
2022-08-19T06:22:40.958Z,-62
2022-08-19T06:25:07.961Z,-61
2022-08-19T06:27:34.685Z,-61
2022-08-19T06:30:01.313Z,-64
2022-08-19T06:32:27.705Z,-64
2022-08-19T06:34:54.189Z,-63
2022-08-19T06:37:22.572Z,-64
2022-08-19T06:39:49.778Z,-64
2022-08-19T06:42:19.361Z,-63
2022-08-19T06:44:49.347Z,-63
2022-08-19T06:47:23.769Z,-64
2022-08-19T06:49:54.617Z,-63
2022-08-19T06:52:27.525Z,-64
2022-08-19T06:54:56.927Z,-64
2022-08-19T06:57:27.290Z,-64
2022-08-19T06:59:54.021Z,-63
2022-08-19T07:02:21.682Z,-63
2022-08-19T07:04:48.442Z,-63
2022-08-19T07:07:21.818Z,-63
2022-08-19T07:09:57.909Z,-64
2022-08-19T07:12:29.623Z,-64
2022-08-19T07:14:58.591Z,-64
2022-08-19T07:17:25.175Z,-63
2022-08-19T07:19:54.455Z,-64
2022-08-19T07:22:21.581Z,-63
2022-08-19T07:24:51.469Z,-64
2022-08-19T07:27:24.470Z,-64
2022-08-19T07:29:55.875Z,-62
2022-08-19T07:32:24.118Z,-64
2022-08-19T07:34:50.491Z,-64
2022-08-19T07:37:17.325Z,-63
2022-08-19T07:39:43.940Z,-63
2022-08-19T07:42:13.263Z,-64
2022-08-19T07:47:47.988Z,-64
2022-08-19T07:50:05.445Z,-64
2022-08-19T07:52:34.403Z,-64
2022-08-19T07:55:04.473Z,-63
2022-08-19T07:57:31.025Z,-63
2022-08-19T07:59:57.482Z,-64
2022-08-19T08:02:23.848Z,-64
2022-08-19T08:05:08.916Z,-64
2022-08-19T08:07:53.922Z,-63
2022-08-19T08:10:21.475Z,-64
2022-08-19T08:12:51.385Z,-64
2022-08-19T08:15:39.967Z,-63
2022-08-19T08:18:08.547Z,-64
2022-08-19T08:20:36.056Z,-64
2022-08-19T08:23:20.868Z,-63
2022-08-19T08:25:49.330Z,-65
2022-08-19T08:28:17.711Z,-64
2022-08-19T08:30:46.582Z,-65
2022-08-19T08:33:13.117Z,-63
2022-08-19T08:35:46.422Z,-64
2022-08-19T08:38:13.658Z,-64
2022-08-19T08:40:55.652Z,-65
2022-08-19T08:43:30.661Z,-64
2022-08-19T08:46:12.409Z,-63
2022-08-19T08:48:47.145Z,-62
2022-08-19T08:51:44.819Z,-62
2022-08-19T08:54:18.705Z,-62
2022-08-19T08:56:46.744Z,-62
2022-08-19T08:59:34.200Z,-60
2022-08-19T09:02:01.124Z,-62
2022-08-19T09:04:28.305Z,-61
2022-08-19T09:07:27.149Z,-61
2022-08-19T09:10:29.922Z,-62
2022-08-19T09:13:19.656Z,-62
2022-08-19T09:15:51.875Z,-62
2022-08-19T09:18:19.639Z,-62
2022-08-19T09:20:48.304Z,-62
2022-08-19T09:23:15.148Z,-62
2022-08-19T09:25:42.057Z,-62
2022-08-19T09:28:20.617Z,-62
2022-08-19T09:30:49.237Z,-61
2022-08-19T09:33:16.998Z,-62
2022-08-19T09:35:52.896Z,-62
2022-08-19T09:38:20.739Z,-61
2022-08-19T09:40:47.398Z,-62
2022-08-19T09:43:13.749Z,-61
2022-08-19T09:45:40.440Z,-62
2022-08-19T09:48:07.142Z,-62
2022-08-19T09:50:35.002Z,-61
2022-08-19T09:53:01.458Z,-62
2022-08-19T09:55:31.742Z,-63
2022-08-19T09:58:03.030Z,-63
2022-08-19T10:00:30.091Z,-61
2022-08-19T10:02:56.553Z,-61
2022-08-19T10:05:55.180Z,-62
2022-08-19T10:08:26.664Z,-64
2022-08-19T10:10:55.835Z,-63
2022-08-19T10:13:26.985Z,-63
2022-08-19T10:15:56.969Z,-62
2022-08-19T10:18:25.360Z,-63
2022-08-19T10:20:54.457Z,-61
2022-08-19T10:23:22.022Z,-65
2022-08-19T10:25:49.284Z,-63
2022-08-19T10:28:16.131Z,-62
2022-08-19T10:30:46.128Z,-62
2022-08-19T10:33:12.872Z,-60
2022-08-19T10:35:42.804Z,-60
2022-08-19T10:38:31.805Z,-60
2022-08-19T10:41:07.501Z,-61
2022-08-19T10:43:38.077Z,-60
2022-08-19T10:46:06.580Z,-60
2022-08-19T10:48:41.575Z,-60
2022-08-19T10:51:27.578Z,-61
2022-08-19T10:53:54.361Z,-60
2022-08-19T10:56:39.136Z,-60
2022-08-19T10:59:05.705Z,-61
2022-08-19T11:01:34.905Z,-62
2022-08-19T11:04:03.208Z,-60
2022-08-19T11:06:31.781Z,-60
2022-08-19T11:08:58.720Z,-60
2022-08-19T11:11:25.153Z,-63
2022-08-19T11:13:51.535Z,-65
2022-08-19T11:16:21.075Z,-63
2022-08-19T11:18:51.544Z,-62
2022-08-19T11:21:20.307Z,-62
2022-08-19T11:23:48.809Z,-62
2022-08-19T11:26:16.538Z,-62
2022-08-19T11:28:43.615Z,-62
2022-08-19T11:31:18.522Z,-62
2022-08-19T11:33:47.841Z,-62
2022-08-19T11:36:15.346Z,-62
2022-08-19T11:38:42.270Z,-60
2022-08-19T11:41:09.181Z,-61
2022-08-19T11:43:37.666Z,-61
2022-08-19T11:46:07.801Z,-60
2022-08-19T11:48:35.432Z,-60
2022-08-19T11:51:07.121Z,-60
2022-08-19T11:53:35.019Z,-60
2022-08-19T11:56:01.757Z,-60
2022-08-19T11:58:28.201Z,-60
2022-08-19T12:00:54.592Z,-60
2022-08-19T12:03:21.046Z,-60
2022-08-19T12:05:47.570Z,-62
2022-08-19T12:08:14.301Z,-60
2022-08-19T12:10:43.025Z,-61
2022-08-19T12:13:16.536Z,-61
2022-08-19T12:15:42.917Z,-61
2022-08-19T12:18:10.105Z,-62
2022-08-19T12:20:38.523Z,-61
2022-08-19T12:23:06.719Z,-60
2022-08-19T12:25:33.987Z,-61
2022-08-19T12:28:00.659Z,-60
2022-08-19T12:30:27.441Z,-61
2022-08-19T12:32:54.555Z,-60
2022-08-19T12:35:22.146Z,-61
2022-08-19T12:37:57.016Z,-63
2022-08-19T12:40:26.462Z,-61
2022-08-19T12:42:53.022Z,-63
2022-08-19T12:45:20.039Z,-64
2022-08-19T12:47:47.751Z,-64
2022-08-19T12:50:14.481Z,-63
2022-08-19T12:52:43.209Z,-64
2022-08-19T12:55:10.120Z,-64
2022-08-19T12:57:36.683Z,-64
2022-08-19T13:00:15.359Z,-63
2022-08-19T13:02:45.379Z,-63
2022-08-19T13:05:16.935Z,-62
2022-08-19T13:07:44.824Z,-63
2022-08-19T13:10:15.098Z,-63
2022-08-19T13:12:42.253Z,-64
2022-08-19T13:15:10.844Z,-64
2022-08-19T13:17:39.195Z,-63
2022-08-19T13:20:08.736Z,-62
2022-08-19T13:22:36.836Z,-63
2022-08-19T13:25:04.779Z,-64
2022-08-19T13:27:31.174Z,-62
2022-08-19T13:30:16.183Z,-63
2022-08-19T13:33:01.115Z,-63
2022-08-19T13:35:27.485Z,-63
2022-08-19T13:37:54.055Z,-63
2022-08-19T13:40:24.785Z,-64
2022-08-19T13:42:53.949Z,-64
2022-08-19T13:45:23.853Z,-63
2022-08-19T13:47:58.667Z,-64
2022-08-19T13:50:28.968Z,-63
2022-08-19T13:52:56.136Z,-62
2022-08-19T13:55:25.096Z,-63
2022-08-19T13:57:57.888Z,-64
2022-08-19T14:00:27.386Z,-62
2022-08-19T14:02:56.583Z,-63
2022-08-19T14:05:24.467Z,-61
2022-08-19T14:07:51.367Z,-61
2022-08-19T14:10:19.808Z,-60
2022-08-19T14:12:47.258Z,-60
2022-08-19T14:15:14.617Z,-61
2022-08-19T14:17:44.107Z,-60
2022-08-19T14:20:17.609Z,-62
2022-08-19T14:22:46.684Z,-60
2022-08-19T14:25:18.928Z,-60
2022-08-19T14:27:46.130Z,-61
2022-08-19T14:30:19.146Z,-60
2022-08-19T14:32:45.678Z,-61
2022-08-19T14:35:15.053Z,-60
2022-08-19T14:37:56.601Z,-62
2022-08-19T14:40:26.803Z,-60
2022-08-19T14:42:56.660Z,-61
2022-08-19T14:45:23.133Z,-60
2022-08-19T14:47:49.678Z,-60
2022-08-19T14:50:18.332Z,-60
2022-08-19T14:52:48.729Z,-61
2022-08-19T14:55:16.530Z,-60
2022-08-19T14:57:44.047Z,-62
2022-08-19T15:00:14.740Z,-62
2022-08-19T15:02:42.511Z,-59
2022-08-19T15:05:09.640Z,-60
2022-08-19T15:07:36.652Z,-60
2022-08-19T15:10:04.862Z,-60
2022-08-19T15:12:31.471Z,-62
2022-08-19T15:14:57.849Z,-60
2022-08-19T15:17:43.721Z,-62
2022-08-19T15:20:16.509Z,-60
2022-08-19T15:22:43.228Z,-60
2022-08-19T15:25:12.355Z,-61
2022-08-19T15:27:40.536Z,-61
2022-08-19T15:30:09.153Z,-61
2022-08-19T15:32:37.203Z,-62
2022-08-19T15:35:05.943Z,-61
2022-08-19T15:37:32.897Z,-62
2022-08-19T15:40:05.437Z,-62
2022-08-19T15:42:32.024Z,-61
2022-08-19T15:45:01.427Z,-61
2022-08-19T15:47:35.574Z,-63
2022-08-19T15:50:10.527Z,-62
2022-08-19T15:52:37.601Z,-62
2022-08-19T15:55:19.271Z,-62
2022-08-19T15:58:28.830Z,-63
2022-08-19T16:01:18.303Z,-61
2022-08-19T16:04:05.385Z,-62
2022-08-19T16:06:40.743Z,-62
2022-08-19T16:09:07.146Z,-63
2022-08-19T16:11:39.324Z,-64
2022-08-19T16:14:09.206Z,-61
2022-08-19T16:16:37.588Z,-62
2022-08-19T16:19:10.401Z,-63
2022-08-19T16:21:41.540Z,-63
2022-08-19T16:24:11.974Z,-63
2022-08-19T16:26:39.186Z,-63
2022-08-19T16:29:09.126Z,-63
2022-08-19T16:31:41.554Z,-63
2022-08-19T16:34:08.350Z,-63
2022-08-19T16:36:34.729Z,-60
2022-08-19T16:39:01.753Z,-59
2022-08-19T16:41:29.024Z,-60
2022-08-19T16:43:55.558Z,-59
2022-08-19T16:46:23.402Z,-59
2022-08-19T16:48:53.904Z,-59
2022-08-19T16:51:21.410Z,-59
2022-08-19T16:53:48.961Z,-59
2022-08-19T16:56:15.472Z,-59
2022-08-19T16:58:43.108Z,-59
2022-08-19T17:01:10.763Z,-60
2022-08-19T17:03:39.865Z,-59
2022-08-19T17:06:20.438Z,-59
2022-08-19T17:08:52.006Z,-60
2022-08-19T17:11:19.802Z,-59
2022-08-19T17:13:47.689Z,-60
2022-08-19T17:16:15.649Z,-60
2022-08-19T17:18:42.041Z,-60
2022-08-19T17:21:08.397Z,-59
2022-08-19T17:23:37.553Z,-59
2022-08-19T17:26:16.996Z,-59
2022-08-19T17:28:50.106Z,-59
2022-08-19T17:31:19.183Z,-60
2022-08-19T17:33:48.364Z,-59
2022-08-19T17:36:19.856Z,-59
2022-08-19T17:38:46.466Z,-59
2022-08-19T17:41:12.996Z,-59
2022-08-19T17:43:43.321Z,-59
2022-08-19T17:46:11.130Z,-58
2022-08-19T17:48:40.509Z,-59
2022-08-19T17:51:17.374Z,-59
2022-08-19T17:53:50.545Z,-59
2022-08-19T17:56:17.029Z,-59
2022-08-19T17:58:44.163Z,-61
2022-08-19T18:01:15.982Z,-61
2022-08-19T18:03:44.196Z,-61
2022-08-19T18:06:13.061Z,-61
2022-08-19T18:08:39.879Z,-61
2022-08-19T18:11:08.141Z,-62
2022-08-19T18:13:35.372Z,-61
2022-08-19T18:16:03.174Z,-61
2022-08-19T18:18:29.562Z,-61
2022-08-19T18:20:56.479Z,-61
2022-08-19T18:23:44.754Z,-61
2022-08-19T18:26:09.962Z,-61
2022-08-19T18:28:38.389Z,-61
2022-08-19T18:31:04.848Z,-61
2022-08-19T18:33:31.239Z,-61
2022-08-19T18:35:57.693Z,-61
2022-08-19T18:38:42.494Z,-61
2022-08-19T18:41:28.329Z,-61
2022-08-19T18:44:13.157Z,-61
2022-08-19T18:46:58.021Z,-61
2022-08-19T18:49:28.007Z,-61
2022-08-19T18:51:56.603Z,-61
2022-08-19T18:54:24.894Z,-62
2022-08-19T18:56:55.487Z,-61
2022-08-19T18:59:27.525Z,-61
2022-08-19T19:01:56.977Z,-61
2022-08-19T19:04:35.248Z,-62
2022-08-19T19:07:01.618Z,-61
2022-08-19T19:09:28.333Z,-61
2022-08-19T19:11:58.027Z,-61
2022-08-19T19:14:48.672Z,-61
2022-08-19T19:17:16.525Z,-61
2022-08-19T19:19:44.140Z,-60
2022-08-19T19:22:17.782Z,-61
2022-08-19T19:24:44.188Z,-61
2022-08-19T19:27:12.863Z,-61
2022-08-19T19:29:40.122Z,-61
2022-08-19T19:32:09.484Z,-61
2022-08-19T19:34:39.209Z,-60
2022-08-19T19:37:06.069Z,-61
2022-08-19T19:39:45.994Z,-61
2022-08-19T19:42:20.031Z,-61
2022-08-19T19:44:48.575Z,-61
2022-08-19T19:47:15.545Z,-58
2022-08-19T19:50:03.798Z,-58
2022-08-19T19:52:28.353Z,-58
2022-08-19T19:54:56.617Z,-59
2022-08-19T19:57:26.656Z,-59
2022-08-19T19:59:54.041Z,-58
2022-08-19T20:02:21.752Z,-58
2022-08-19T20:04:48.751Z,-59
2022-08-19T20:07:15.183Z,-58
2022-08-19T20:09:58.873Z,-58
2022-08-19T20:12:26.560Z,-58
2022-08-19T20:14:52.943Z,-58
2022-08-19T20:17:20.442Z,-58
2022-08-19T20:19:47.785Z,-58
2022-08-19T20:22:14.392Z,-58
2022-08-19T20:24:42.419Z,-58
2022-08-19T20:27:09.154Z,-58
2022-08-19T20:29:41.556Z,-59
2022-08-19T20:32:11.106Z,-59
2022-08-19T20:34:39.168Z,-58
2022-08-19T20:37:05.662Z,-60
2022-08-19T20:39:32.146Z,-59
2022-08-19T20:41:58.673Z,-59
2022-08-19T20:44:25.319Z,-59
2022-08-19T20:46:54.527Z,-59
2022-08-19T20:49:22.961Z,-59
2022-08-19T20:51:54.408Z,-58
2022-08-19T20:54:20.780Z,-59
2022-08-19T20:56:47.152Z,-58
2022-08-19T20:59:13.507Z,-59
2022-08-19T21:01:39.878Z,-58
2022-08-19T21:04:06.245Z,-59
2022-08-19T21:06:32.585Z,-58
2022-08-19T21:08:58.952Z,-58
2022-08-19T21:11:25.314Z,-58
2022-08-19T21:13:51.708Z,-60
2022-08-19T21:16:18.129Z,-59
2022-08-19T21:18:44.774Z,-59
2022-08-19T21:21:11.195Z,-58
2022-08-19T21:23:37.593Z,-58
2022-08-19T21:26:04.025Z,-59
2022-08-19T21:28:35.899Z,-59
2022-08-19T21:31:04.246Z,-58
2022-08-19T21:33:32.097Z,-58
2022-08-19T21:35:59.953Z,-58
2022-08-19T21:38:26.725Z,-58
2022-08-19T21:40:53.180Z,-58
2022-08-19T21:43:19.600Z,-58
2022-08-19T21:45:47.416Z,-58
2022-08-19T21:48:14.752Z,-58
2022-08-19T21:50:42.393Z,-58
2022-08-19T21:53:09.033Z,-58
2022-08-19T21:55:38.987Z,-58
2022-08-19T21:58:05.345Z,-58
2022-08-19T22:00:34.100Z,-58
2022-08-19T22:03:03.563Z,-58
2022-08-19T22:05:31.432Z,-58
2022-08-19T22:07:59.489Z,-58
2022-08-19T22:10:31.833Z,-58
2022-08-19T22:12:58.439Z,-58
2022-08-19T22:15:29.500Z,-58
2022-08-19T22:17:58.420Z,-58
2022-08-19T22:20:29.238Z,-58
2022-08-19T22:23:00.574Z,-59
2022-08-19T22:25:31.970Z,-58
2022-08-19T22:28:01.821Z,-58
2022-08-19T22:30:33.697Z,-58
2022-08-19T22:33:03.757Z,-58
2022-08-19T22:35:33.647Z,-58
2022-08-19T22:38:00.609Z,-58
2022-08-19T22:40:29.600Z,-57
2022-08-19T22:43:05.810Z,-58
2022-08-19T22:45:33.412Z,-58
2022-08-19T22:48:00.237Z,-58
2022-08-19T22:50:26.598Z,-58
2022-08-19T22:52:57.855Z,-58
2022-08-19T22:55:26.373Z,-58
2022-08-19T22:57:53.382Z,-58
2022-08-19T23:00:21.751Z,-58
2022-08-19T23:02:52.390Z,-58
2022-08-19T23:05:20.862Z,-58
2022-08-19T23:07:50.124Z,-58
2022-08-19T23:10:27.423Z,-58
2022-08-19T23:12:56.939Z,-58
2022-08-19T23:15:26.277Z,-58
2022-08-19T23:17:55.488Z,-58
2022-08-19T23:20:26.882Z,-58
2022-08-19T23:22:54.794Z,-58
2022-08-19T23:25:25.649Z,-58
2022-08-19T23:28:10.599Z,-58
2022-08-19T23:30:43.602Z,-58
2022-08-19T23:33:46.571Z,-58
2022-08-19T23:36:17.866Z,-58
2022-08-19T23:38:47.225Z,-58
2022-08-19T23:41:17.790Z,-58
2022-08-19T23:43:44.578Z,-58
2022-08-19T23:46:14.459Z,-58
2022-08-19T23:48:54.595Z,-58
2022-08-19T23:51:20.953Z,-58
2022-08-19T23:53:47.393Z,-58
2022-08-19T23:56:13.801Z,-58
2022-08-19T23:58:40.467Z,-58
